Time;durP1;ratioP1;P1;durP2;ratioP2;P2;SDS_P1;SDS_P2;PMS_P1;PMS_P2;Temp;Humidity;BMP_temperature;BMP_pressure;BME280_temperature;BME280_humidity;BME280_pressure;Samples;Min_cycle;Max_cycle;Signal;HPM_P1;HPM_P2
2022/03/26 00:02:16;;;;;;;;;0.00;0.00;18.70;99.90;;;;;;5069214;28;9085;-47
2022/03/26 00:04:47;;;;;;;;;0.33;0.33;18.60;99.90;;;;;;5079183;28;9198;-46
2022/03/26 00:07:19;;;;;;;;;0.00;0.00;18.60;99.90;;;;;;5078791;28;9272;-49
2022/03/26 00:09:49;;;;;;;;;0.00;0.00;18.60;99.90;;;;;;5079523;28;10101;-48
2022/03/26 00:12:19;;;;;;;;;0.00;0.00;18.60;99.90;;;;;;5079848;28;9344;-50
2022/03/26 00:14:54;;;;;;;;;0.00;0.00;18.60;99.90;;;;;;5080396;28;9363;-48
2022/03/26 00:17:25;;;;;;;;;0.00;0.00;18.60;99.90;;;;;;5075912;28;9312;-49
2022/03/26 00:19:56;;;;;;;;;1.00;1.00;18.60;99.90;;;;;;5077862;28;9417;-50
2022/03/26 00:22:27;;;;;;;;;0.33;0.33;18.60;99.90;;;;;;5076964;28;9982;-48
2022/03/26 00:24:57;;;;;;;;;0.00;0.00;18.50;99.90;;;;;;5079709;28;10192;-48
2022/03/26 00:27:27;;;;;;;;;0.00;0.00;18.50;99.90;;;;;;5059713;28;9462;-50
2022/03/26 00:29:57;;;;;;;;;0.00;0.00;18.50;99.90;;;;;;5086169;28;9466;-47
2022/03/26 00:32:28;;;;;;;;;0.00;0.00;18.50;99.90;;;;;;5075547;28;9441;-47
2022/03/26 00:34:59;;;;;;;;;1.00;1.00;18.50;99.90;;;;;;5080355;28;9395;-47
2022/03/26 00:37:32;;;;;;;;;0.33;0.33;18.40;99.90;;;;;;5076909;28;9607;-50
2022/03/26 00:40:02;;;;;;;;;0.00;0.00;18.40;99.90;;;;;;5075194;28;9651;-50
2022/03/26 00:42:33;;;;;;;;;0.00;0.00;18.40;99.90;;;;;;5080530;28;9642;-49
2022/03/26 00:45:05;;;;;;;;;0.00;0.00;18.40;99.90;;;;;;5077757;28;9644;-46
2022/03/26 00:47:36;;;;;;;;;1.33;0.00;18.30;99.90;;;;;;5067822;28;9486;-47
2022/03/26 00:50:08;;;;;;;;;0.00;0.00;18.40;99.90;;;;;;5076664;28;9463;-45
2022/03/26 00:52:41;;;;;;;;;0.33;0.33;18.40;99.90;;;;;;5081087;28;10198;-50
2022/03/26 00:55:13;;;;;;;;;0.67;0.67;18.30;99.90;;;;;;5083046;28;9633;-48
2022/03/26 00:57:43;;;;;;;;;0.00;0.00;18.30;99.90;;;;;;5078287;28;9550;-47
2022/03/26 01:00:14;;;;;;;;;0.00;0.00;18.30;99.90;;;;;;5078804;28;9622;-47
2022/03/26 01:02:45;;;;;;;;;1.67;1.00;18.30;99.90;;;;;;5078403;28;9373;-48
2022/03/26 01:05:17;;;;;;;;;0.75;0.75;18.20;99.90;;;;;;5082927;28;9333;-48
2022/03/26 01:07:47;;;;;;;;;3.25;3.00;18.20;99.90;;;;;;5082973;28;9585;-49
2022/03/26 01:10:18;;;;;;;;;1.50;1.50;18.20;99.90;;;;;;5071855;28;10833;-48
2022/03/26 01:12:48;;;;;;;;;2.50;0.75;18.20;99.90;;;;;;5077873;28;9750;-50
2022/03/26 01:15:19;;;;;;;;;0.75;0.75;18.10;99.90;;;;;;5077916;28;9864;-49
2022/03/26 01:17:50;;;;;;;;;1.50;0.00;18.10;99.90;;;;;;5083396;28;9851;-47
2022/03/26 01:20:21;;;;;;;;;0.00;0.00;18.00;99.90;;;;;;5067533;28;9830;-49
2022/03/26 01:22:52;;;;;;;;;2.00;0.00;18.10;99.90;;;;;;5080007;28;9625;-47
2022/03/26 01:25:24;;;;;;;;;0.75;0.75;18.10;99.90;;;;;;5080314;28;9874;-47
2022/03/26 01:27:54;;;;;;;;;1.00;0.25;18.10;99.90;;;;;;5080564;28;10079;-50
2022/03/26 01:30:25;;;;;;;;;1.25;1.25;18.00;99.90;;;;;;5080763;28;9994;-47
2022/03/26 01:32:55;;;;;;;;;1.50;1.50;18.00;99.90;;;;;;5071422;28;10710;-48
2022/03/26 01:35:27;;;;;;;;;3.75;3.75;18.00;99.90;;;;;;5072932;28;11532;-47
2022/03/26 01:38:01;;;;;;;;;5.25;5.25;17.90;99.90;;;;;;5070026;28;10301;-49
2022/03/26 01:40:33;;;;;;;;;6.00;6.00;17.90;99.90;;;;;;5083041;28;10394;-47
2022/03/26 01:43:06;;;;;;;;;4.75;4.75;17.80;99.90;;;;;;5079796;28;10332;-46
2022/03/26 01:45:36;;;;;;;;;4.00;4.00;17.80;99.90;;;;;;5075318;28;10169;-47
2022/03/26 01:48:07;;;;;;;;;0.75;0.75;17.70;99.90;;;;;;5071599;28;10175;-50
2022/03/26 01:50:40;;;;;;;;;0.50;0.50;17.70;99.90;;;;;;5065097;28;10910;-49
2022/03/26 01:53:11;;;;;;;;;1.00;1.00;17.70;99.90;;;;;;5067385;28;9836;-47
2022/03/26 01:55:42;;;;;;;;;0.50;0.50;17.60;99.90;;;;;;5077323;28;10592;-48
2022/03/26 01:58:14;;;;;;;;;0.00;0.00;17.60;99.90;;;;;;5063133;28;9865;-51
2022/03/26 02:00:46;;;;;;;;;1.75;1.75;17.60;99.90;;;;;;5080050;28;9836;-47
2022/03/26 02:03:17;;;;;;;;;1.00;1.00;17.50;99.90;;;;;;5071620;28;9814;-49
2022/03/26 02:05:47;;;;;;;;;0.25;0.25;17.50;99.90;;;;;;5083615;28;9757;-49
2022/03/26 02:08:19;;;;;;;;;0.00;0.00;17.40;99.90;;;;;;5073050;28;10006;-47
2022/03/26 02:10:49;;;;;;;;;0.50;0.50;17.40;99.90;;;;;;5078531;28;9935;-48
2022/03/26 02:13:21;;;;;;;;;0.00;0.00;17.40;99.90;;;;;;5083032;28;10244;-45
2022/03/26 02:15:53;;;;;;;;;1.00;1.00;17.40;99.90;;;;;;5084116;28;9996;-51
2022/03/26 02:18:23;;;;;;;;;2.50;2.50;17.30;99.90;;;;;;5071340;28;10206;-48
2022/03/26 02:20:53;;;;;;;;;4.00;3.00;17.20;99.90;;;;;;5073814;28;10831;-48
2022/03/26 02:23:24;;;;;;;;;5.25;4.50;17.20;99.90;;;;;;5074791;28;10851;-48
2022/03/26 02:25:54;;;;;;;;;10.25;10.25;17.10;99.90;;;;;;5073817;28;10666;-47
2022/03/26 02:28:25;;;;;;;;;13.50;13.50;17.10;99.90;;;;;;5074696;28;11082;-50
2022/03/26 02:30:57;;;;;;;;;19.50;18.00;17.10;99.90;;;;;;5077115;27;10912;-47
2022/03/26 02:33:26;;;;;;;;;20.25;20.25;17.00;99.90;;;;;;5076793;28;11060;-48
2022/03/26 02:35:58;;;;;;;;;17.75;17.75;16.90;99.90;;;;;;5074986;28;11895;-47
2022/03/26 02:38:28;;;;;;;;;6.75;6.75;16.80;99.90;;;;;;5069291;28;11348;-47
2022/03/26 02:41:00;;;;;;;;;1.00;1.00;16.80;99.90;;;;;;5075982;28;10909;-51
2022/03/26 02:43:31;;;;;;;;;0.25;0.25;16.80;99.90;;;;;;5067730;28;10617;-49
2022/03/26 02:46:03;;;;;;;;;1.25;1.00;16.70;99.90;;;;;;5065949;28;10149;-49
2022/03/26 02:48:35;;;;;;;;;1.00;1.00;16.70;99.90;;;;;;5067817;28;10440;-51
2022/03/26 02:51:07;;;;;;;;;1.00;1.00;16.70;99.90;;;;;;5070452;28;10347;-45
2022/03/26 02:53:38;;;;;;;;;2.50;0.00;16.70;99.90;;;;;;5080963;28;10970;-45
2022/03/26 02:56:10;;;;;;;;;2.00;1.00;16.60;99.90;;;;;;5077595;28;10289;-47
2022/03/26 02:58:41;;;;;;;;;2.00;2.00;16.60;99.90;;;;;;5077695;28;10254;-50
2022/03/26 03:01:13;;;;;;;;;1.00;1.00;16.50;99.90;;;;;;5069666;28;11023;-48
2022/03/26 03:03:47;;;;;;;;;0.75;0.75;16.50;99.90;;;;;;5070981;28;10326;-49
2022/03/26 03:06:17;;;;;;;;;1.75;1.50;16.50;99.90;;;;;;5073901;28;10379;-46
2022/03/26 03:08:48;;;;;;;;;1.00;1.00;16.50;99.90;;;;;;5073288;28;10344;-48
2022/03/26 03:11:18;;;;;;;;;1.00;1.00;16.40;99.90;;;;;;5083273;28;10935;-49
2022/03/26 03:13:50;;;;;;;;;2.00;1.25;16.40;99.90;;;;;;5077804;28;10329;-51
2022/03/26 03:16:20;;;;;;;;;1.25;1.25;16.30;99.90;;;;;;5071205;28;10417;-47
2022/03/26 03:18:53;;;;;;;;;2.50;1.00;16.30;99.90;;;;;;5075436;28;10484;-50
2022/03/26 03:21:24;;;;;;;;;0.75;0.75;16.30;99.90;;;;;;5084476;28;10307;-47
2022/03/26 03:23:55;;;;;;;;;1.00;1.00;16.30;99.90;;;;;;5069535;28;10359;-49
2022/03/26 03:26:26;;;;;;;;;2.50;2.50;16.30;99.90;;;;;;5083214;28;11220;-51
2022/03/26 03:28:59;;;;;;;;;2.25;1.50;16.10;99.90;;;;;;5069948;28;10477;-50
2022/03/26 03:31:29;;;;;;;;;0.50;0.50;16.10;99.90;;;;;;5078460;28;10566;-48
2022/03/26 03:34:00;;;;;;;;;2.00;2.00;16.10;99.90;;;;;;5069148;28;10541;-51
2022/03/26 03:36:30;;;;;;;;;1.00;1.00;16.00;99.90;;;;;;5077326;28;10511;-48
2022/03/26 03:39:00;;;;;;;;;2.00;2.00;16.00;99.90;;;;;;5077876;28;10387;-48
2022/03/26 03:41:32;;;;;;;;;2.00;0.00;15.90;99.90;;;;;;5077230;28;10551;-49
2022/03/26 03:44:02;;;;;;;;;1.25;1.25;15.90;99.90;;;;;;5068802;28;10456;-47
2022/03/26 03:46:33;;;;;;;;;3.00;1.25;15.80;99.90;;;;;;5073556;28;10613;-49
2022/03/26 03:49:04;;;;;;;;;0.00;0.00;15.80;99.90;;;;;;5067555;28;10589;-50
2022/03/26 03:51:34;;;;;;;;;1.00;1.00;15.70;99.90;;;;;;5074261;28;10614;-48
2022/03/26 03:54:05;;;;;;;;;1.00;1.00;15.70;99.90;;;;;;5077712;28;10558;-50
2022/03/26 03:56:36;;;;;;;;;1.00;1.00;15.70;99.90;;;;;;5072446;28;10778;-53
2022/03/26 03:59:08;;;;;;;;;3.00;3.00;15.60;99.90;;;;;;5085347;28;10697;-47
2022/03/26 04:01:39;;;;;;;;;1.00;1.00;15.70;99.90;;;;;;5073150;28;11329;-51
2022/03/26 04:04:11;;;;;;;;;0.00;0.00;15.70;99.90;;;;;;5078418;28;10816;-51
2022/03/26 04:06:43;;;;;;;;;2.00;0.50;15.70;99.90;;;;;;5077288;28;10566;-47
2022/03/26 04:09:13;;;;;;;;;1.00;1.00;15.70;99.90;;;;;;5085299;28;10576;-46
2022/03/26 04:11:44;;;;;;;;;2.75;1.50;15.70;99.90;;;;;;5079141;28;10554;-48
2022/03/26 04:14:14;;;;;;;;;1.00;1.00;15.70;99.90;;;;;;5081277;28;10733;-47
2022/03/26 04:16:44;;;;;;;;;1.00;1.00;15.60;99.90;;;;;;5078359;28;10661;-49
2022/03/26 04:19:18;;;;;;;;;1.00;1.00;15.60;99.90;;;;;;5067468;28;11445;-45
2022/03/26 04:21:49;;;;;;;;;2.75;1.00;15.60;99.90;;;;;;5079505;28;10455;-49
2022/03/26 04:24:20;;;;;;;;;1.25;1.25;15.60;99.90;;;;;;5073368;27;10709;-48
2022/03/26 04:26:53;;;;;;;;;2.75;1.00;15.50;99.90;;;;;;5066960;28;11523;-48
2022/03/26 04:29:23;;;;;;;;;2.75;1.00;15.50;99.90;;;;;;5078786;28;10757;-50
2022/03/26 04:31:54;;;;;;;;;0.00;0.00;15.50;99.90;;;;;;5071464;28;10763;-49
2022/03/26 04:34:25;;;;;;;;;1.00;1.00;15.50;99.90;;;;;;5063092;28;10793;-50
2022/03/26 04:36:55;;;;;;;;;1.00;1.00;15.50;99.90;;;;;;5074811;28;10596;-48
2022/03/26 04:39:26;;;;;;;;;1.00;1.00;15.50;99.90;;;;;;5068064;28;10818;-47
2022/03/26 04:41:56;;;;;;;;;0.25;0.25;15.40;99.90;;;;;;5080630;28;11545;-49
2022/03/26 04:44:26;;;;;;;;;0.00;0.00;15.40;99.90;;;;;;5066341;28;10708;-48
2022/03/26 04:46:57;;;;;;;;;1.00;1.00;15.30;99.90;;;;;;5075127;28;10660;-50
2022/03/26 04:49:28;;;;;;;;;0.00;0.00;15.40;99.90;;;;;;5070258;28;10738;-48
2022/03/26 04:51:58;;;;;;;;;0.00;0.00;15.30;99.90;;;;;;5077244;28;11367;-49
2022/03/26 04:54:29;;;;;;;;;2.00;2.00;15.40;99.90;;;;;;5067869;28;10722;-47
2022/03/26 04:57:00;;;;;;;;;2.00;2.00;15.30;99.90;;;;;;5083235;28;10986;-46
2022/03/26 04:59:31;;;;;;;;;3.00;1.00;15.30;99.90;;;;;;5071769;28;10832;-47
2022/03/26 05:02:01;;;;;;;;;1.50;1.50;15.30;99.90;;;;;;5077811;28;10969;-49
2022/03/26 05:04:31;;;;;;;;;1.00;1.00;15.30;99.90;;;;;;5075944;28;10703;-48
2022/03/26 05:07:45;;;;;;;;;3.25;1.00;15.30;99.90;;;;;;5073717;28;10740;-49
2022/03/26 05:09:53;;;;;;;;;1.00;1.00;15.30;99.90;;;;;;5073036;28;10768;-49
2022/03/26 05:12:23;;;;;;;;;1.00;1.00;15.20;99.90;;;;;;5069173;28;10832;-51
2022/03/26 05:14:54;;;;;;;;;1.00;1.00;15.30;99.90;;;;;;5080850;28;10694;-47
2022/03/26 05:17:25;;;;;;;;;1.25;1.25;15.20;99.90;;;;;;5072929;28;10704;-46
2022/03/26 05:19:55;;;;;;;;;6.75;0.50;15.20;99.90;;;;;;5079639;28;10781;-47
2022/03/26 05:22:26;;;;;;;;;1.75;1.50;15.20;99.90;;;;;;5077812;28;10957;-48
2022/03/26 05:24:58;;;;;;;;;2.00;2.00;15.20;99.90;;;;;;5075301;28;10657;-48
2022/03/26 05:27:29;;;;;;;;;1.25;1.25;15.20;99.90;;;;;;5071087;28;10910;-48
2022/03/26 05:30:00;;;;;;;;;1.50;1.50;15.10;99.90;;;;;;5081542;28;10877;-48
2022/03/26 05:32:31;;;;;;;;;1.75;1.75;15.20;99.90;;;;;;5067459;28;10646;-50
2022/03/26 05:35:03;;;;;;;;;0.75;0.75;15.10;99.90;;;;;;5070895;28;10877;-47
2022/03/26 05:37:34;;;;;;;;;1.00;1.00;15.20;99.90;;;;;;5071681;27;11504;-50
2022/03/26 05:40:07;;;;;;;;;0.50;0.00;15.10;99.90;;;;;;5074686;28;10803;-48
2022/03/26 05:42:39;;;;;;;;;2.00;0.50;15.10;99.90;;;;;;5073900;28;10740;-50
2022/03/26 05:45:10;;;;;;;;;2.75;1.75;15.10;99.90;;;;;;5069883;28;10604;-51
2022/03/26 05:47:40;;;;;;;;;1.00;1.00;15.10;99.90;;;;;;5071969;28;10959;-49
2022/03/26 05:50:12;;;;;;;;;1.00;1.00;15.00;99.90;;;;;;5083747;28;10824;-49
2022/03/26 05:52:43;;;;;;;;;1.00;1.00;15.00;99.90;;;;;;5069255;28;10961;-46
2022/03/26 05:55:13;;;;;;;;;0.00;0.00;15.00;99.90;;;;;;5082989;28;10900;-47
2022/03/26 05:57:44;;;;;;;;;2.00;2.00;15.00;99.90;;;;;;5075326;28;10849;-50
2022/03/26 06:00:17;;;;;;;;;5.50;3.75;15.00;99.90;;;;;;5079044;28;10962;-47
2022/03/26 06:02:48;;;;;;;;;2.75;2.75;15.00;99.90;;;;;;5073897;27;11655;-47
2022/03/26 06:05:18;;;;;;;;;2.25;2.25;15.00;99.90;;;;;;5071673;28;11062;-49
2022/03/26 06:07:50;;;;;;;;;2.00;2.00;15.00;99.90;;;;;;5073734;28;11873;-46
2022/03/26 06:10:21;;;;;;;;;0.00;0.00;15.00;99.90;;;;;;5063236;28;11135;-47
2022/03/26 06:12:51;;;;;;;;;1.00;1.00;14.90;99.90;;;;;;5064425;28;10904;-46
2022/03/26 06:15:23;;;;;;;;;2.00;1.00;14.90;99.90;;;;;;5069243;28;11258;-48
2022/03/26 06:18:12;;;;;;;;;2.00;1.75;14.90;99.90;;;;;;5076993;28;10859;-47
2022/03/26 06:20:42;;;;;;;;;1.75;1.00;14.90;99.90;;;;;;5071806;28;11285;-47
2022/03/26 06:23:14;;;;;;;;;0.25;0.25;14.80;99.90;;;;;;5071998;28;11057;-47
2022/03/26 06:25:44;;;;;;;;;1.00;1.00;14.80;99.90;;;;;;5068345;28;10990;-49
2022/03/26 06:28:19;;;;;;;;;2.25;1.00;14.80;99.90;;;;;;5076423;28;10971;-48
2022/03/26 06:30:49;;;;;;;;;0.50;0.50;14.80;99.90;;;;;;5064074;28;10954;-51
2022/03/26 06:33:22;;;;;;;;;1.00;1.00;14.70;99.90;;;;;;5076571;28;10979;-47
2022/03/26 06:35:53;;;;;;;;;3.00;1.50;14.70;99.90;;;;;;5071544;28;10934;-50
2022/03/26 06:38:31;;;;;;;;;2.00;2.00;14.70;99.90;;;;;;5068804;28;10862;-48
2022/03/26 06:41:01;;;;;;;;;3.00;1.00;14.70;99.90;;;;;;5067742;28;10984;-48
2022/03/26 06:43:32;;;;;;;;;1.00;1.00;14.70;99.90;;;;;;5073034;28;11140;-46
2022/03/26 06:46:04;;;;;;;;;3.00;3.00;14.70;99.90;;;;;;5070920;28;11145;-47
2022/03/26 06:48:36;;;;;;;;;3.25;3.00;14.70;99.90;;;;;;5068886;28;11454;-44
2022/03/26 06:51:08;;;;;;;;;7.00;7.00;14.60;99.90;;;;;;5067413;28;11560;-46
2022/03/26 06:53:39;;;;;;;;;7.00;7.00;14.60;99.90;;;;;;5060161;28;11511;-46
2022/03/26 06:56:09;;;;;;;;;7.75;7.75;14.50;99.90;;;;;;5066087;28;11739;-49
2022/03/26 06:58:40;;;;;;;;;7.25;7.25;14.60;99.90;;;;;;5074169;28;11450;-46
2022/03/26 07:01:10;;;;;;;;;6.25;6.25;14.50;99.90;;;;;;5074810;28;11908;-45
2022/03/26 07:03:40;;;;;;;;;4.75;4.75;14.50;99.90;;;;;;5072887;28;12248;-47
2022/03/26 07:06:13;;;;;;;;;2.00;1.00;14.50;99.90;;;;;;5090680;27;11448;-46
2022/03/26 07:08:43;;;;;;;;;3.50;3.50;14.40;99.90;;;;;;5073406;28;11427;-46
2022/03/26 07:11:14;;;;;;;;;3.00;3.00;14.40;99.90;;;;;;5077708;28;11579;-45
2022/03/26 07:13:44;;;;;;;;;2.25;2.00;14.40;99.90;;;;;;5068210;28;11456;-48
2022/03/26 07:16:14;;;;;;;;;2.75;2.75;14.40;99.90;;;;;;5068032;28;11464;-49
2022/03/26 07:18:44;;;;;;;;;3.00;3.00;14.30;99.90;;;;;;5073238;28;11439;-47
2022/03/26 07:21:14;;;;;;;;;3.00;3.00;14.30;99.90;;;;;;5071593;28;11555;-46
2022/03/26 07:23:45;;;;;;;;;3.50;3.50;14.20;99.90;;;;;;5078672;28;11463;-45
2022/03/26 07:26:15;;;;;;;;;2.25;2.25;14.20;99.90;;;;;;5075509;28;11441;-47
2022/03/26 07:28:46;;;;;;;;;3.00;3.00;14.20;99.90;;;;;;5078173;28;11458;-47
2022/03/26 07:31:18;;;;;;;;;2.75;2.75;14.10;99.90;;;;;;5072095;28;11649;-48
2022/03/26 07:33:49;;;;;;;;;5.75;2.50;14.20;99.90;;;;;;5071376;28;11414;-49
2022/03/26 07:36:19;;;;;;;;;3.00;3.00;14.10;99.90;;;;;;5078282;28;11137;-45
2022/03/26 07:38:49;;;;;;;;;3.25;2.00;14.10;99.90;;;;;;5072789;28;11421;-47
2022/03/26 07:41:21;;;;;;;;;2.00;2.00;14.00;99.90;;;;;;5072220;28;11464;-49
2022/03/26 07:43:53;;;;;;;;;2.50;2.50;14.00;99.90;;;;;;5083461;28;11810;-45
2022/03/26 07:46:22;;;;;;;;;3.50;3.00;14.00;99.90;;;;;;5074176;28;12060;-48
2022/03/26 07:48:54;;;;;;;;;2.75;2.75;13.90;99.90;;;;;;5072897;28;11489;-47
2022/03/26 07:51:24;;;;;;;;;3.00;1.00;13.90;99.90;;;;;;5072327;28;11433;-49
2022/03/26 07:53:55;;;;;;;;;3.00;3.00;13.90;99.90;;;;;;5069563;28;12214;-44
2022/03/26 07:56:25;;;;;;;;;2.50;2.00;13.90;99.90;;;;;;5061995;28;12137;-45
2022/03/26 07:58:58;;;;;;;;;3.50;2.50;13.90;99.90;;;;;;5066990;28;11426;-46
2022/03/26 08:01:29;;;;;;;;;4.75;4.75;13.90;99.90;;;;;;5081775;28;11442;-46
2022/03/26 08:03:59;;;;;;;;;4.00;4.00;13.90;99.90;;;;;;5071559;28;11462;-50
2022/03/26 08:06:30;;;;;;;;;5.00;5.00;13.80;99.90;;;;;;5067294;28;11444;-49
2022/03/26 08:09:01;;;;;;;;;5.00;5.00;13.80;99.90;;;;;;5077866;28;11477;-49
2022/03/26 08:11:31;;;;;;;;;5.00;5.00;13.80;99.90;;;;;;5066269;28;11466;-47
2022/03/26 08:14:01;;;;;;;;;3.75;3.50;13.70;99.90;;;;;;5069147;28;11427;-45
2022/03/26 08:16:32;;;;;;;;;5.25;5.25;13.70;99.90;;;;;;5077832;28;11615;-46
2022/03/26 08:19:04;;;;;;;;;4.00;4.00;13.70;99.90;;;;;;5066193;28;11450;-49
2022/03/26 08:21:35;;;;;;;;;5.00;5.00;13.70;99.90;;;;;;5065301;28;11452;-44
2022/03/26 08:24:06;;;;;;;;;4.25;4.25;13.70;99.90;;;;;;5066634;28;11638;-50
2022/03/26 08:26:39;;;;;;;;;4.00;4.00;13.70;99.90;;;;;;5069216;28;11481;-48
2022/03/26 08:29:10;;;;;;;;;3.75;3.75;13.70;99.90;;;;;;5065156;28;11481;-49
2022/03/26 08:31:40;;;;;;;;;5.50;4.75;13.60;99.90;;;;;;5070359;28;11502;-47
2022/03/26 08:34:12;;;;;;;;;5.00;4.00;13.60;99.90;;;;;;5065605;28;11486;-47
2022/03/26 08:36:42;;;;;;;;;2.00;2.00;13.60;99.90;;;;;;5068433;28;11479;-49
2022/03/26 08:39:12;;;;;;;;;4.00;4.00;13.50;99.90;;;;;;5070467;28;11477;-49
2022/03/26 08:41:42;;;;;;;;;4.00;4.00;13.50;99.90;;;;;;5062711;28;11447;-46
2022/03/26 08:44:12;;;;;;;;;3.00;3.00;13.50;99.90;;;;;;5070636;28;11597;-45
2022/03/26 08:46:44;;;;;;;;;4.25;4.25;13.50;99.90;;;;;;5069388;28;11447;-45
2022/03/26 08:49:15;;;;;;;;;5.00;5.00;13.50;99.90;;;;;;5076104;28;11599;-50
2022/03/26 08:51:46;;;;;;;;;5.50;5.50;13.50;99.90;;;;;;5076688;28;11687;-46
2022/03/26 08:54:19;;;;;;;;;4.50;4.50;13.40;99.90;;;;;;5072393;28;11436;-49
2022/03/26 08:56:49;;;;;;;;;4.75;4.75;13.40;99.90;;;;;;5058720;28;12205;-46
2022/03/26 08:59:22;;;;;;;;;4.00;4.00;13.40;99.90;;;;;;5066485;28;11490;-47
2022/03/26 09:01:52;;;;;;;;;5.50;5.50;13.40;99.90;;;;;;5073157;28;11442;-45
2022/03/26 09:04:24;;;;;;;;;6.00;4.50;13.40;99.90;;;;;;5065432;28;11527;-47
2022/03/26 09:06:55;;;;;;;;;5.50;4.00;13.40;99.90;;;;;;5062612;28;11476;-46
2022/03/26 09:09:26;;;;;;;;;2.75;2.00;13.30;99.90;;;;;;5074536;28;11462;-45
2022/03/26 09:11:56;;;;;;;;;4.75;4.75;13.30;99.90;;;;;;5060340;28;11730;-45
2022/03/26 09:14:26;;;;;;;;;4.00;4.00;13.20;99.90;;;;;;5063290;28;11899;-46
2022/03/26 09:16:57;;;;;;;;;4.00;4.00;13.20;99.90;;;;;;5066454;28;11464;-45
2022/03/26 09:19:27;;;;;;;;;5.00;5.00;13.20;99.90;;;;;;5068207;28;11649;-44
2022/03/26 09:21:58;;;;;;;;;3.00;3.00;13.20;99.90;;;;;;5069133;28;11468;-47
2022/03/26 09:24:28;;;;;;;;;5.25;3.50;13.20;99.90;;;;;;5068509;28;11535;-47
2022/03/26 09:26:58;;;;;;;;;3.50;3.50;13.10;99.90;;;;;;5067127;28;11726;-46
2022/03/26 09:29:30;;;;;;;;;1.00;1.00;13.20;99.90;;;;;;5066337;28;12027;-46
2022/03/26 09:32:00;;;;;;;;;5.50;3.00;13.10;99.90;;;;;;5079392;28;11413;-44
2022/03/26 09:34:33;;;;;;;;;2.00;2.00;13.10;99.90;;;;;;5070155;28;11436;-44
2022/03/26 09:37:04;;;;;;;;;2.25;1.00;13.00;99.90;;;;;;5066421;28;11460;-44
2022/03/26 09:39:35;;;;;;;;;2.00;2.00;13.00;99.90;;;;;;5069488;28;11407;-48
2022/03/26 09:42:09;;;;;;;;;4.25;3.50;13.00;99.90;;;;;;5062135;28;12209;-45
2022/03/26 09:44:40;;;;;;;;;3.50;1.75;13.00;99.90;;;;;;5066709;28;11495;-49
2022/03/26 09:47:10;;;;;;;;;1.00;1.00;12.90;99.90;;;;;;5064275;28;11534;-45
2022/03/26 09:49:42;;;;;;;;;2.50;2.50;12.90;99.90;;;;;;5069174;28;11516;-47
2022/03/26 09:52:13;;;;;;;;;4.00;4.00;12.80;99.90;;;;;;5072515;28;11547;-47
2022/03/26 09:54:44;;;;;;;;;2.00;2.00;12.90;99.90;;;;;;5070453;28;12204;-46
2022/03/26 09:57:15;;;;;;;;;3.00;2.25;12.80;99.90;;;;;;5072534;28;11502;-49
2022/03/26 09:59:47;;;;;;;;;4.75;4.75;12.80;99.90;;;;;;5059371;28;11705;-45
2022/03/26 10:02:17;;;;;;;;;2.75;2.75;12.80;99.90;;;;;;5068244;28;11486;-46
2022/03/26 10:04:47;;;;;;;;;2.00;2.00;12.80;99.90;;;;;;5068495;28;11559;-47
2022/03/26 10:07:26;;;;;;;;;2.00;2.00;12.70;99.90;;;;;;5073500;28;11573;-47
2022/03/26 10:09:57;;;;;;;;;3.50;1.00;12.70;99.90;;;;;;5065978;28;11469;-45
2022/03/26 10:12:28;;;;;;;;;1.75;1.75;12.70;99.90;;;;;;5063520;28;11660;-48
2022/03/26 10:15:01;;;;;;;;;4.25;3.50;12.70;99.90;;;;;;5050085;28;11550;-48
2022/03/26 10:17:36;;;;;;;;;1.25;1.25;12.60;99.90;;;;;;5067511;28;11514;-48
2022/03/26 10:20:11;;;;;;;;;1.00;1.00;12.60;99.90;;;;;;5073592;28;11484;-49
2022/03/26 10:22:49;;;;;;;;;1.00;1.00;12.60;99.90;;;;;;5068684;28;11817;-47
2022/03/26 10:25:24;;;;;;;;;1.50;1.50;12.60;99.90;;;;;;5075468;28;11501;-48
2022/03/26 10:27:56;;;;;;;;;1.00;1.00;12.60;99.90;;;;;;5070297;28;12436;-50
2022/03/26 10:33:30;;;;;;;;;1.00;1.00;12.60;99.90;;;;;;5072754;28;11472;-48
2022/03/26 10:36:02;;;;;;;;;1.50;1.50;12.50;99.90;;;;;;5070044;28;12074;-47
2022/03/26 10:38:34;;;;;;;;;1.25;1.25;12.50;99.90;;;;;;5072692;28;11532;-47
2022/03/26 10:41:07;;;;;;;;;1.00;1.00;12.40;99.90;;;;;;5068700;28;11516;-46
2022/03/26 10:43:41;;;;;;;;;1.25;1.25;12.40;99.90;;;;;;5074957;28;11579;-49
2022/03/26 10:46:13;;;;;;;;;1.00;1.00;12.40;99.90;;;;;;5067476;28;11625;-46
2022/03/26 10:48:45;;;;;;;;;1.00;1.00;12.30;99.90;;;;;;5069994;28;11490;-47
2022/03/26 10:51:16;;;;;;;;;4.00;4.00;12.30;99.90;;;;;;5074216;28;12230;-49
2022/03/26 10:53:49;;;;;;;;;3.00;3.00;12.20;99.90;;;;;;5070559;28;11521;-49
2022/03/26 10:56:20;;;;;;;;;1.00;1.00;12.20;99.90;;;;;;5068146;28;11548;-46
2022/03/26 10:58:51;;;;;;;;;1.25;1.25;12.20;99.90;;;;;;5067460;28;11651;-48
2022/03/26 11:01:22;;;;;;;;;3.50;2.00;12.20;99.90;;;;;;5063734;28;11508;-49
2022/03/26 11:03:52;;;;;;;;;1.00;1.00;12.10;99.90;;;;;;5070927;28;11609;-46
2022/03/26 11:06:27;;;;;;;;;1.50;1.50;12.10;99.90;;;;;;5072937;28;12304;-49
2022/03/26 11:09:01;;;;;;;;;2.50;2.50;12.10;99.90;;;;;;5076821;28;11501;-50
2022/03/26 11:11:33;;;;;;;;;3.00;3.00;12.10;99.90;;;;;;5078385;27;11520;-49
2022/03/26 11:14:11;;;;;;;;;2.00;2.00;12.10;99.90;;;;;;5070789;28;11531;-46
2022/03/26 11:17:11;;;;;;;;;1.00;1.00;12.10;99.90;;;;;;5075052;28;11529;-48
2022/03/26 11:20:04;;;;;;;;;1.50;1.50;12.10;99.90;;;;;;5069922;28;11497;-48
2022/03/26 11:22:35;;;;;;;;;2.00;2.00;12.10;99.90;;;;;;5076768;28;12263;-47
2022/03/26 11:25:32;;;;;;;;;2.50;2.50;12.00;99.90;;;;;;5069304;28;12318;-50
2022/03/26 11:28:24;;;;;;;;;2.00;2.00;12.00;99.90;;;;;;5073649;28;12201;-45
2022/03/26 11:31:19;;;;;;;;;1.50;1.50;12.00;99.90;;;;;;5067727;28;12210;-50
2022/03/26 11:34:01;;;;;;;;;2.25;2.25;11.90;99.90;;;;;;5069667;28;12333;-48
2022/03/26 11:36:32;;;;;;;;;1.00;1.00;11.90;99.90;;;;;;5073587;28;11503;-47
2022/03/26 11:39:28;;;;;;;;;1.50;1.50;11.90;99.90;;;;;;5069834;28;11512;-47
2022/03/26 11:42:08;;;;;;;;;2.00;2.00;11.90;99.90;;;;;;5068901;28;11641;-50
2022/03/26 11:50:41;;;;;;;;;1.67;1.67;11.90;99.90;;;;;;5064767;27;8854;-50
2022/03/26 11:50:46;;;;;;;;;20.67;20.67;11.90;99.90;;;;;;5070676;28;8860;-45
2022/03/26 11:53:37;;;;;;;;;16.67;16.67;11.90;99.90;;;;;;5077489;28;8848;-46
2022/03/26 11:56:24;;;;;;;;;15.00;15.00;11.80;99.90;;;;;;5073360;28;8925;-49
2022/03/26 11:59:19;;;;;;;;;19.67;19.67;11.80;99.90;;;;;;5067460;27;8839;-49
2022/03/26 12:01:50;;;;;;;;;26.00;26.00;11.80;99.90;;;;;;5076025;28;8852;-48
2022/03/26 12:04:27;;;;;;;;;26.33;26.33;11.80;99.90;;;;;;5071183;28;8887;-46
2022/03/26 12:06:59;;;;;;;;;25.33;25.33;11.70;99.90;;;;;;5069703;28;8869;-47
2022/03/26 12:09:35;;;;;;;;;25.67;25.00;11.70;99.90;;;;;;5069943;28;9607;-49
2022/03/26 12:12:14;;;;;;;;;25.33;25.33;11.70;99.90;;;;;;5072944;28;9026;-49
2022/03/26 12:15:02;;;;;;;;;27.33;27.00;11.70;99.90;;;;;;5074315;28;8858;-47
2022/03/26 12:17:51;;;;;;;;;34.33;32.33;11.60;99.90;;;;;;5071192;28;9605;-50
2022/03/26 12:20:38;;;;;;;;;38.33;36.00;11.70;99.90;;;;;;5067173;28;8842;-48
2022/03/26 12:23:26;;;;;;;;;40.33;37.33;11.60;99.90;;;;;;5075767;28;9614;-49
2022/03/26 12:26:08;;;;;;;;;38.67;36.67;11.60;99.90;;;;;;5068192;28;8850;-46
2022/03/26 12:28:42;;;;;;;;;39.67;37.00;11.60;99.90;;;;;;5074556;28;9662;-47
2022/03/26 12:31:17;;;;;;;;;46.00;40.00;11.50;99.90;;;;;;5076483;28;9599;-49
2022/03/26 12:33:53;;;;;;;;;44.67;39.67;11.50;99.90;;;;;;5068525;28;8836;-49
2022/03/26 12:36:23;;;;;;;;;45.00;40.33;11.50;99.90;;;;;;5065935;28;8871;-49
2022/03/26 12:38:57;;;;;;;;;49.00;41.67;11.50;99.90;;;;;;5070429;28;8852;-46
2022/03/26 12:41:27;;;;;;;;;43.33;38.33;11.50;99.90;;;;;;5070198;28;8831;-47
2022/03/26 12:44:01;;;;;;;;;41.67;38.33;11.50;99.90;;;;;;5071826;28;8843;-48
2022/03/26 12:46:34;;;;;;;;;34.33;33.33;11.50;99.90;;;;;;5071671;28;8869;-47
2022/03/26 12:49:18;;;;;;;;;38.33;36.00;11.40;99.90;;;;;;5076964;28;8985;-46
2022/03/26 12:51:55;;;;;;;;;47.67;41.00;11.40;99.90;;;;;;5067484;28;8830;-49
2022/03/26 12:54:30;;;;;;;;;47.00;41.00;11.40;99.90;;;;;;5081070;28;8976;-46
2022/03/26 12:57:05;;;;;;;;;46.33;40.67;11.30;99.90;;;;;;5067891;28;8888;-48
2022/03/26 12:59:36;;;;;;;;;34.67;33.33;11.30;99.90;;;;;;5063248;28;8868;-45
2022/03/26 13:02:10;;;;;;;;;29.67;29.00;11.30;99.90;;;;;;5074242;28;8828;-47
2022/03/26 13:04:41;;;;;;;;;23.67;23.67;11.30;99.90;;;;;;5069415;28;9657;-50
2022/03/26 13:07:11;;;;;;;;;11.25;11.25;11.30;99.90;;;;;;5073135;28;9019;-46
2022/03/26 13:09:41;;;;;;;;;13.25;13.25;11.30;99.90;;;;;;5063868;28;11560;-49
2022/03/26 13:12:28;;;;;;;;;8.75;8.75;11.30;99.90;;;;;;5070758;28;11549;-49
2022/03/26 13:14:58;;;;;;;;;4.50;4.50;11.30;99.90;;;;;;5068626;28;11597;-47
2022/03/26 13:17:28;;;;;;;;;3.00;2.50;11.20;99.90;;;;;;5072786;28;12340;-48
2022/03/26 13:19:59;;;;;;;;;6.25;3.50;11.20;99.90;;;;;;5070777;28;11828;-47